createdAt,value
2022-11-05T00:02:15.449Z,24.73
2022-11-05T00:08:35.819Z,23.02
2022-11-05T00:14:56.063Z,26.70
2022-11-05T00:20:57.954Z,20.98
2022-11-05T00:26:59.765Z,20.88
2022-11-05T00:33:04.369Z,28.33
2022-11-05T00:39:06.412Z,23.15
2022-11-05T00:45:08.782Z,22.80
2022-11-05T00:58:16.394Z,23.88
2022-11-05T01:04:31.145Z,21.63
2022-11-05T01:10:52.198Z,23.10
2022-11-05T01:17:37.865Z,26.77
2022-11-05T01:23:57.879Z,26.60
2022-11-05T01:30:02.799Z,27.30
2022-11-05T01:36:05.910Z,25.63
2022-11-05T01:42:56.519Z,22.85
2022-11-05T01:50:00.651Z,21.60
2022-11-05T01:56:15.785Z,23.73
2022-11-05T02:16:26.050Z,19.48
2022-11-05T02:23:29.899Z,25.02
2022-11-05T02:30:03.703Z,22.70
2022-11-05T02:37:01.292Z,25.17
2022-11-05T02:43:58.836Z,25.80
2022-11-05T02:50:26.362Z,22.05
2022-11-05T02:57:25.921Z,24.23
2022-11-05T03:04:14.323Z,25.77
2022-11-05T03:10:52.461Z,31.23
2022-11-05T03:24:37.851Z,27.58
2022-11-05T03:30:52.293Z,23.00
2022-11-05T03:37:30.710Z,25.92
2022-11-05T03:44:08.401Z,26.48
2022-11-05T03:50:40.021Z,32.17
2022-11-05T04:03:47.638Z,29.42
2022-11-05T04:17:17.957Z,27.83
2022-11-05T04:24:01.480Z,19.42
2022-11-05T04:30:36.011Z,22.23
2022-11-05T04:36:58.690Z,34.42
2022-11-05T04:43:29.417Z,29.20
2022-11-05T04:49:45.618Z,27.63
2022-11-05T04:56:25.341Z,47.03
2022-11-05T05:02:41.381Z,31.13
2022-11-05T05:09:50.601Z,30.75
2022-11-05T05:16:04.978Z,34.47
2022-11-05T05:22:27.679Z,33.13
2022-11-05T05:29:00.446Z,29.38
2022-11-05T05:35:23.361Z,32.30
2022-11-05T05:42:03.574Z,39.13
2022-11-05T05:48:49.716Z,40.10
2022-11-05T11:48:35.299Z,8.75
2022-11-05T11:54:37.130Z,11.05
2022-11-05T12:00:50.047Z,10.43
2022-11-05T12:07:04.042Z,11.68
2022-11-05T12:13:20.967Z,9.18
2022-11-05T12:19:50.651Z,6.88
2022-11-05T12:26:23.065Z,8.88
2022-11-05T12:32:40.113Z,6.88
2022-11-05T12:39:16.193Z,8.98
2022-11-05T12:45:44.000Z,8.70
2022-11-05T12:52:05.821Z,10.67
2022-11-05T12:58:24.994Z,7.82
2022-11-05T13:05:02.111Z,9.88
2022-11-05T13:11:16.535Z,11.23
2022-11-05T13:17:22.761Z,10.10
2022-11-05T13:23:56.822Z,3.22
2022-11-05T13:30:03.880Z,5.13
2022-11-05T13:36:41.696Z,5.17
2022-11-05T13:43:22.788Z,3.97
2022-11-05T13:49:43.427Z,7.32
2022-11-05T13:56:09.845Z,6.70
2022-11-05T14:02:20.455Z,7.63
2022-11-05T14:08:27.799Z,4.85
2022-11-05T14:14:46.839Z,6.93
2022-11-05T14:21:26.699Z,5.45
2022-11-05T14:27:34.624Z,6.22
2022-11-05T14:33:39.947Z,5.68
2022-11-05T14:39:42.118Z,8.02
2022-11-05T14:46:06.217Z,6.53
2022-11-05T14:52:10.749Z,6.15
2022-11-05T14:58:29.396Z,7.28
2022-11-05T15:04:35.644Z,4.15
2022-11-05T15:10:39.002Z,6.80
2022-11-05T15:16:44.677Z,5.80
2022-11-05T15:22:52.542Z,8.60
2022-11-05T15:28:56.294Z,7.85
2022-11-05T15:34:58.120Z,6.78
2022-11-05T15:41:44.277Z,7.38
2022-11-05T15:47:46.358Z,10.05
2022-11-05T15:54:08.848Z,3.83
2022-11-05T16:00:20.498Z,8.43
2022-11-05T16:06:29.349Z,6.68
2022-11-05T16:12:36.728Z,6.03
2022-11-05T16:18:38.830Z,3.40
2022-11-05T16:24:41.968Z,7.03
2022-11-05T16:30:53.325Z,5.35
2022-11-05T16:36:56.966Z,7.22
2022-11-05T16:43:15.148Z,7.20
2022-11-05T16:55:19.433Z,6.38
2022-11-05T17:01:22.863Z,7.68
2022-11-05T17:07:24.806Z,9.32
2022-11-05T17:13:27.018Z,6.18
2022-11-05T17:19:28.856Z,8.35
2022-11-05T17:25:31.030Z,6.38
2022-11-05T17:31:32.842Z,4.90
2022-11-05T17:37:34.768Z,6.53
2022-11-05T17:43:36.599Z,4.88
2022-11-05T17:49:38.416Z,4.65
2022-11-05T17:55:41.967Z,6.10
2022-11-05T18:01:45.981Z,8.30
2022-11-05T18:07:48.737Z,6.72
2022-11-05T18:13:50.586Z,6.57
2022-11-05T18:19:52.560Z,8.43
2022-11-05T18:25:54.431Z,9.60
2022-11-05T18:31:56.315Z,10.02
2022-11-05T18:37:58.100Z,8.00
2022-11-05T18:44:01.690Z,8.13
2022-11-05T18:50:05.390Z,9.32
2022-11-05T18:56:12.607Z,9.18
2022-11-05T19:02:14.959Z,10.83
2022-11-05T19:08:16.959Z,8.63
2022-11-05T19:14:19.031Z,9.45
2022-11-05T19:20:20.869Z,9.13
2022-11-05T19:26:28.842Z,11.55
2022-11-05T19:32:30.954Z,10.20
2022-11-05T19:38:33.266Z,10.27
2022-11-05T19:44:35.162Z,9.70
2022-11-05T19:50:41.636Z,12.98
2022-11-05T19:56:43.445Z,11.80
2022-11-05T20:02:48.521Z,11.75
2022-11-05T20:09:19.881Z,10.60
2022-11-05T20:15:12.279Z,10.35
2022-11-05T20:21:14.165Z,9.25
2022-11-05T20:27:16.023Z,10.35
2022-11-05T20:33:17.900Z,10.38
2022-11-05T20:39:21.176Z,15.32
2022-11-05T20:45:23.032Z,8.57
2022-11-05T20:51:25.538Z,15.57
2022-11-05T20:57:27.356Z,9.35
2022-11-05T21:03:54.211Z,11.63
2022-11-05T21:10:02.302Z,8.20
2022-11-05T21:16:06.930Z,8.32
2022-11-05T21:22:08.951Z,8.50
2022-11-05T21:28:49.862Z,9.43
2022-11-05T21:34:51.891Z,8.35
2022-11-05T21:40:53.845Z,8.93
2022-11-05T21:46:59.170Z,9.20
2022-11-05T21:53:19.473Z,7.03
2022-11-05T21:59:41.943Z,11.70
2022-11-05T22:05:43.990Z,9.25
2022-11-05T22:11:45.769Z,8.82
2022-11-05T22:17:50.519Z,7.32
2022-11-05T22:23:52.861Z,8.27
2022-11-05T22:29:55.109Z,7.32
2022-11-05T22:35:56.930Z,8.98
2022-11-05T22:42:02.957Z,8.13
2022-11-05T22:48:09.870Z,8.68
2022-11-05T22:54:12.259Z,8.35
2022-11-05T23:00:17.320Z,10.93
2022-11-05T23:06:43.284Z,11.98
2022-11-05T23:12:45.159Z,9.43
2022-11-05T23:19:09.738Z,12.73
2022-11-05T23:25:16.930Z,8.75
2022-11-05T23:31:37.136Z,11.10
2022-11-05T23:37:57.467Z,12.43
2022-11-05T23:44:17.828Z,7.85
2022-11-05T23:50:19.642Z,9.15
2022-11-05T23:56:23.700Z,13.00
